This is the latest recevied weather packets stored in our database for station/object N8HKU-5. If no packets are shown the sender has not sent any weather packets the latest 10 day(s).
| Time | Temp. | Humidity | Pressure | Rain* | Wind** | Luminosity | Snow |
|---|---|---|---|---|---|---|---|
| 1777809155 | 3.33° C | 72% | 1011.9 hPa | 0 mm | - | - | - |
| 1777808554 | 3.33° C | 73% | 1011.9 hPa | 0 mm | - | - | - |
| 1777807959 | 2.78° C | 74% | 1011.9 hPa | 0 mm | - | - | - |
| 1777807357 | 2.22° C | 74% | 1011.9 hPa | 0 mm | - | - | - |
| 1777806754 | 2.22° C | 75% | 1011.9 hPa | 0 mm | - | - | - |
| 1777806154 | 2.22° C | 75% | 1011.9 hPa | 0 mm | - | - | - |
| 1777805556 | 1.67° C | 74% | 1011.9 hPa | 0 mm | - | - | - |
| 1777804953 | 1.67° C | 74% | 1011.9 hPa | 0 mm | - | - | - |
| 1777804355 | 1.67° C | 74% | 1012 hPa | 0 mm | - | - | - |
| 1777803754 | 1.67° C | 74% | 1012 hPa | 0 mm | - | - | - |
| 1777803155 | 1.67° C | 75% | 1012 hPa | 0 mm | - | - | - |
| 1777802555 | 1.11° C | 78% | 1012.1 hPa | 0 mm | - | - | - |
| 1777801954 | 0.56° C | 82% | 1012.2 hPa | 0 mm | - | - | - |
| 1777801354 | 0° C | 84% | 1012.3 hPa | 0 mm | - | - | - |
| 1777800754 | -0.56° C | 86% | 1012.5 hPa | 0 mm | - | - | - |
| 1777800154 | -0.56° C | 86% | 1012.5 hPa | 0 mm | - | - | - |
| 1777799554 | -0.56° C | 87% | 1012.5 hPa | 0 mm | - | - | - |
| 1777798954 | -1.11° C | 89% | 1012.5 hPa | 0 mm | - | - | - |
| 1777798354 | -1.11° C | 88% | 1012.6 hPa | 0 mm | - | - | - |
| 1777797754 | -1.11° C | 88% | 1012.7 hPa | 0 mm | - | - | - |
| 1777797155 | -1.11° C | 87% | 1012.7 hPa | 0 mm | - | - | - |
| 1777796555 | -1.11° C | 87% | 1012.7 hPa | 0 mm | - | - | - |
| 1777795955 | -1.11° C | 87% | 1012.7 hPa | 0 mm | - | - | - |
| 1777795354 | -1.11° C | 86% | 1012.7 hPa | 0 mm | - | - | - |
| 1777794754 | -0.56° C | 86% | 1012.7 hPa | 0 mm | - | - | - |
* Rain latest hour (hover to see other rain measurements)
** Current wind speed in m/s (hover to see current wind gust speed)